Time,TemperatureF,DewpointF,PressureIn,WindDirection,WindDirectionDegrees,WindSpeedMPH,WindSpeedGustMPH,Humidity,HourlyPrecipIn,Conditions,Clouds,dailyrainin,SoftwareType,DateUTC
2013-02-11 00:32:00,-999.0,-99.9,-100.00,ESE,120,16.0,26.0,-999,-99.99,,,-99.99,,2013-02-11 05:32:00,
2013-02-11 00:42:00,-999.0,-99.9,-100.00,SE,129,12.0,18.0,-999,-99.99,,,-99.99,,2013-02-11 05:42:00,
2013-02-11 01:12:00,-999.0,-99.9,-100.00,SE,126,18.0,24.0,-999,-99.99,,,-99.99,,2013-02-11 06:12:00,
2013-02-11 02:12:00,-999.0,-99.9,-100.00,SE,124,14.0,24.0,-999,-99.99,,,-99.99,,2013-02-11 07:12:00,
2013-02-11 03:42:00,-999.0,-99.9,-100.00,ESE,114,13.0,19.0,-999,-99.99,,,-99.99,,2013-02-11 08:42:00,
2013-02-11 04:12:00,-999.0,-99.9,-100.00,ESE,115,10.0,16.0,-999,-99.99,,,-99.99,,2013-02-11 09:12:00,
2013-02-11 05:11:00,-999.0,-99.9,-100.00,SE,133,10.0,15.0,-999,-99.99,,,-99.99,,2013-02-11 10:11:00,
2013-02-11 05:42:00,-999.0,-99.9,-100.00,SE,136,11.0,17.0,-999,-99.99,,,-99.99,,2013-02-11 10:42:00,
2013-02-11 07:12:00,-999.0,-99.9,-100.00,SE,132,10.0,18.0,-999,-99.99,,,-99.99,,2013-02-11 12:12:00,
2013-02-11 08:42:00,-999.0,-99.9,-100.00,SE,145,10.0,14.0,-999,-99.99,,,-99.99,,2013-02-11 13:42:00,
2013-02-11 10:12:00,-999.0,-99.9,-100.00,SW,217,6.0,11.0,-999,-99.99,,,-99.99,,2013-02-11 15:12:00,
2013-02-11 10:43:00,-999.0,-99.9,-100.00,SSW,207,7.0,13.0,-999,-99.99,,,-99.99,,2013-02-11 15:43:00,
2013-02-11 10:52:00,-999.0,-99.9,-100.00,South,185,5.0,10.0,-999,-99.99,,,-99.99,,2013-02-11 15:52:00,
2013-02-11 11:43:00,-999.0,-99.9,-100.00,SW,217,10.0,13.0,-999,-99.99,,,-99.99,,2013-02-11 16:43:00,
2013-02-11 12:12:00,-999.0,-99.9,-100.00,SW,220,9.0,14.0,-999,-99.99,,,-99.99,,2013-02-11 17:12:00,
2013-02-11 13:02:00,-999.0,-99.9,-100.00,SSW,211,8.0,11.0,-999,-99.99,,,-99.99,,2013-02-11 18:02:00,
2013-02-11 13:12:00,-999.0,-99.9,-100.00,SSW,206,6.0,10.0,-999,-99.99,,,-99.99,,2013-02-11 18:12:00,
2013-02-11 13:32:00,-999.0,-99.9,-100.00,SW,217,9.0,16.0,-999,-99.99,,,-99.99,,2013-02-11 18:32:00,
2013-02-11 14:42:00,-999.0,-99.9,-100.00,SW,221,6.0,8.0,-999,-99.99,,,-99.99,,2013-02-11 19:42:00,
2013-02-11 15:32:00,35.0,-99.9,29.34,North,-999,-999.0,-999.0,-999,-99.99,,,-99.99,,2013-02-11 20:32:00,
2013-02-11 15:42:00,-999.0,-99.9,-100.00,SW,231,9.0,12.0,-999,-99.99,,,-99.99,,2013-02-11 20:42:00,
2013-02-11 16:12:00,-999.0,-99.9,-100.00,WSW,250,7.0,9.0,-999,-99.99,,,-99.99,,2013-02-11 21:12:00,
2013-02-11 17:42:00,-999.0,-99.9,-100.00,West,259,7.0,9.0,-999,-99.99,,,-99.99,,2013-02-11 22:42:00,
2013-02-11 19:12:00,-999.0,-99.9,-100.00,WNW,294,31.0,38.0,-999,-99.99,,,-99.99,,2013-02-12 00:12:00,
2013-02-11 20:02:00,-999.0,-99.9,-100.00,WNW,296,31.0,38.0,-999,-99.99,,,-99.99,,2013-02-12 01:02:00,
2013-02-11 20:32:00,-999.0,-99.9,-100.00,WNW,291,30.0,40.0,-999,-99.99,,,-99.99,,2013-02-12 01:32:00,
2013-02-11 20:42:00,-999.0,-99.9,-100.00,WNW,294,26.0,38.0,-999,-99.99,,,-99.99,,2013-02-12 01:42:00,
2013-02-11 22:11:00,-999.0,-99.9,-100.00,WNW,287,28.0,33.0,-999,-99.99,,,-99.99,,2013-02-12 03:11:00,
2013-02-11 23:42:00,-999.0,-99.9,-100.00,WNW,294,21.0,30.0,-999,-99.99,,,-99.99,,2013-02-12 04:42:00,